createdAt,value
2022-08-12T00:00:17.468Z,33.94
2022-08-12T00:02:44.188Z,33.68
2022-08-12T00:05:13.955Z,33.70
2022-08-12T00:07:41.388Z,34.04
2022-08-12T00:10:08.092Z,34.48
2022-08-12T00:12:34.589Z,34.23
2022-08-12T00:15:00.967Z,34.24
2022-08-12T00:17:27.985Z,33.57
2022-08-12T00:19:54.523Z,33.61
2022-08-12T00:22:21.378Z,33.41
2022-08-12T00:24:47.796Z,33.22
2022-08-12T00:27:15.228Z,33.12
2022-08-12T00:29:47.327Z,33.32
2022-08-12T00:32:34.152Z,32.76
2022-08-12T00:35:08.548Z,33.06
2022-08-12T00:37:35.404Z,33.04
2022-08-12T00:40:04.883Z,33.21
2022-08-12T00:42:41.797Z,33.49
2022-08-12T00:45:09.681Z,33.28
2022-08-12T00:47:38.676Z,33.48
2022-08-12T00:50:06.672Z,33.50
2022-08-12T00:52:34.315Z,33.76
2022-08-12T00:55:04.541Z,33.60
2022-08-12T00:57:35.974Z,33.80
2022-08-12T01:00:06.600Z,33.71
2022-08-12T01:02:36.274Z,34.09
2022-08-12T01:05:10.635Z,34.20
2022-08-12T01:07:40.025Z,34.23
2022-08-12T01:10:07.009Z,34.46
2022-08-12T01:12:35.202Z,34.42
2022-08-12T01:15:02.296Z,34.42
2022-08-12T01:17:29.898Z,34.60
2022-08-12T01:20:02.828Z,34.49
2022-08-12T01:22:50.858Z,34.74
2022-08-12T01:25:20.454Z,35.02
2022-08-12T01:27:51.193Z,35.46
2022-08-12T01:30:18.693Z,35.64
2022-08-12T01:32:48.622Z,36.10
2022-08-12T01:35:17.070Z,36.28
2022-08-12T01:37:57.190Z,36.34
2022-08-12T01:40:37.907Z,36.38
2022-08-12T01:43:09.494Z,36.64
2022-08-12T01:45:47.256Z,37.03
2022-08-12T01:48:53.591Z,36.92
2022-08-12T01:52:15.582Z,36.96
2022-08-12T01:54:23.380Z,36.93
2022-08-12T01:57:58.329Z,36.91
2022-08-12T02:00:16.636Z,36.92
2022-08-12T02:03:05.573Z,36.74
2022-08-12T02:06:07.929Z,36.73
2022-08-12T02:08:59.931Z,37.15
2022-08-12T02:11:31.355Z,37.21
2022-08-12T02:14:39.490Z,37.12
2022-08-12T02:17:55.382Z,37.90
2022-08-12T02:20:51.377Z,38.02
2022-08-12T02:23:22.494Z,37.79
2022-08-12T02:25:52.545Z,37.74
2022-08-12T02:28:19.612Z,38.30
2022-08-12T02:30:46.118Z,38.75
2022-08-12T02:33:13.039Z,38.45
2022-08-12T02:35:39.754Z,38.22
2022-08-12T02:38:10.068Z,37.99
2022-08-12T02:40:39.373Z,37.97
2022-08-12T02:43:11.446Z,38.15
2022-08-12T02:46:00.296Z,38.40
2022-08-12T02:48:37.896Z,38.50
2022-08-12T02:51:07.161Z,38.23
2022-08-12T02:53:37.043Z,38.52
2022-08-12T02:56:05.621Z,38.98
2022-08-12T02:58:34.086Z,39.23
2022-08-12T03:01:04.198Z,39.01
2022-08-12T03:03:32.914Z,39.32
2022-08-12T03:06:15.631Z,39.85
2022-08-12T03:08:43.331Z,40.10
2022-08-12T03:11:37.727Z,40.26
2022-08-12T03:14:13.933Z,40.70
2022-08-12T03:16:41.243Z,41.00
2022-08-12T03:19:08.306Z,41.58
2022-08-12T03:21:55.678Z,41.58
2022-08-12T03:24:26.373Z,42.01
2022-08-12T03:26:54.749Z,42.50
2022-08-12T03:29:31.152Z,43.27
2022-08-12T03:32:03.610Z,43.49
2022-08-12T03:34:34.166Z,43.39
2022-08-12T03:37:02.466Z,43.84
2022-08-12T03:39:36.305Z,43.65
2022-08-12T03:42:24.696Z,43.94
2022-08-12T03:45:23.001Z,43.80
2022-08-12T03:48:19.244Z,44.03
2022-08-12T03:50:47.210Z,44.47
2022-08-12T03:53:24.526Z,44.81
2022-08-12T03:55:51.511Z,44.48
2022-08-12T03:58:19.879Z,44.19
2022-08-12T04:00:46.492Z,44.96
2022-08-12T04:03:13.208Z,44.68
2022-08-12T04:05:55.987Z,44.54
2022-08-12T04:08:26.097Z,44.33
2022-08-12T04:10:54.838Z,44.56
2022-08-12T04:13:41.143Z,45.20
2022-08-12T04:16:10.157Z,44.89
2022-08-12T04:18:37.119Z,44.89
2022-08-12T04:21:06.944Z,44.54
2022-08-12T04:23:35.019Z,44.96
2022-08-12T04:26:01.361Z,44.44
2022-08-12T04:28:28.099Z,43.54
2022-08-12T04:30:54.526Z,43.92
2022-08-12T04:33:21.565Z,43.97
2022-08-12T04:35:47.901Z,44.16
2022-08-12T04:38:14.479Z,44.87
2022-08-12T04:40:41.627Z,45.23
2022-08-12T04:44:01.069Z,45.03
2022-08-12T04:45:54.257Z,44.83
2022-08-12T04:48:20.711Z,44.30
2022-08-12T04:50:47.360Z,45.28
2022-08-12T04:53:14.482Z,46.19
2022-08-12T04:55:41.592Z,46.25
2022-08-12T04:58:09.208Z,46.55
2022-08-12T05:00:36.874Z,46.02
2022-08-12T05:03:05.604Z,46.34
2022-08-12T05:05:36.096Z,46.20
2022-08-12T05:08:04.351Z,45.66
2022-08-12T05:10:33.512Z,45.28
2022-08-12T05:13:07.318Z,45.22
2022-08-12T05:15:33.659Z,45.43
2022-08-12T05:18:19.649Z,45.16
2022-08-12T05:20:48.129Z,44.63
2022-08-12T05:23:20.804Z,44.13
2022-08-12T05:25:49.328Z,43.72
2022-08-12T05:28:17.582Z,43.05
2022-08-12T05:30:45.878Z,42.53
2022-08-12T05:33:13.663Z,41.93
2022-08-12T05:35:42.921Z,41.51
2022-08-12T05:38:14.375Z,41.25
2022-08-12T05:40:41.112Z,40.94
2022-08-12T05:43:08.022Z,40.21
2022-08-12T05:45:34.393Z,40.21
2022-08-12T05:48:00.853Z,40.05
2022-08-12T05:50:27.179Z,40.03
2022-08-12T05:52:53.993Z,39.79
2022-08-12T05:55:20.486Z,39.47
2022-08-12T05:57:53.899Z,39.13
2022-08-12T06:00:20.215Z,39.01
2022-08-12T06:02:46.671Z,38.63
2022-08-12T06:05:13.121Z,38.51
2022-08-12T06:08:02.056Z,38.00
2022-08-12T06:10:32.457Z,37.98
2022-08-12T06:13:04.930Z,38.13
2022-08-12T06:15:33.784Z,38.38
2022-08-12T06:18:13.986Z,38.11
2022-08-12T06:20:43.498Z,38.19
2022-08-12T06:23:10.227Z,37.97
2022-08-12T06:25:36.625Z,37.79
2022-08-12T06:28:07.904Z,37.63
2022-08-12T06:30:38.502Z,37.52
2022-08-12T06:33:18.437Z,37.23
2022-08-12T06:35:50.071Z,37.52
2022-08-12T06:38:24.842Z,37.44
2022-08-12T06:40:56.845Z,37.58
2022-08-12T06:43:23.188Z,37.81
2022-08-12T06:45:49.595Z,38.09
2022-08-12T06:48:16.068Z,38.58
2022-08-12T06:50:43.011Z,38.31
2022-08-12T06:53:09.606Z,38.11
2022-08-12T06:55:36.605Z,38.21
2022-08-12T06:58:10.064Z,38.07
2022-08-12T07:00:37.908Z,38.34
2022-08-12T07:03:22.571Z,38.04
2022-08-12T07:05:50.860Z,39.42
2022-08-12T07:08:18.470Z,39.23
2022-08-12T07:10:47.592Z,39.83
2022-08-12T07:13:13.948Z,40.17
2022-08-12T07:15:40.379Z,40.04
2022-08-12T07:18:11.703Z,39.53
2022-08-12T07:20:52.256Z,39.52
2022-08-12T07:23:18.846Z,39.21
2022-08-12T07:25:45.416Z,39.51
2022-08-12T07:28:19.349Z,39.22
2022-08-12T07:30:47.738Z,39.31
2022-08-12T07:33:14.896Z,38.90
2022-08-12T07:35:41.342Z,39.28
2022-08-12T07:38:19.222Z,40.00
2022-08-12T07:41:19.243Z,40.09
2022-08-12T07:43:50.182Z,40.60
2022-08-12T07:46:19.648Z,40.06
2022-08-12T07:48:56.118Z,40.38
2022-08-12T07:51:25.857Z,39.89
2022-08-12T07:54:01.138Z,39.84
2022-08-12T07:56:30.876Z,39.48
2022-08-12T07:58:57.416Z,39.61
2022-08-12T08:01:23.760Z,39.54
2022-08-12T08:03:53.554Z,40.02
2022-08-12T08:06:20.161Z,39.89
2022-08-12T08:08:46.700Z,40.23
2022-08-12T08:11:13.007Z,39.65
2022-08-12T08:13:41.647Z,39.54
2022-08-12T08:16:08.573Z,39.02
2022-08-12T08:18:36.090Z,39.81
2022-08-12T08:21:04.784Z,40.09
2022-08-12T08:23:35.254Z,40.05
2022-08-12T08:26:03.740Z,39.68
2022-08-12T08:28:30.079Z,39.67
2022-08-12T08:30:56.435Z,39.75
2022-08-12T08:34:04.733Z,40.19
2022-08-12T08:36:23.687Z,40.21
2022-08-12T08:38:57.778Z,39.65
2022-08-12T08:42:13.923Z,39.55
2022-08-12T08:44:12.478Z,39.42
2022-08-12T08:46:40.532Z,39.01
2022-08-12T08:49:07.509Z,38.49
2022-08-12T08:51:34.309Z,38.35
2022-08-12T08:54:00.754Z,38.57
2022-08-12T08:56:27.212Z,37.87
2022-08-12T08:59:01.893Z,38.16
2022-08-12T09:01:37.810Z,38.06
2022-08-12T09:05:09.770Z,37.94
2022-08-12T09:06:55.905Z,38.59
2022-08-12T09:09:23.874Z,38.09
2022-08-12T09:14:36.956Z,37.61
2022-08-12T09:17:04.336Z,37.84
2022-08-12T09:19:30.870Z,37.64
2022-08-12T09:22:00.509Z,37.24
2022-08-12T09:27:14.202Z,38.77
2022-08-12T09:30:11.878Z,38.49
2022-08-12T09:33:04.162Z,39.62
2022-08-12T09:35:22.094Z,39.06
2022-08-12T09:37:57.726Z,38.91
2022-08-12T09:40:57.803Z,38.82
2022-08-12T09:43:18.286Z,38.96
2022-08-12T09:46:06.155Z,39.08
2022-08-12T09:48:35.159Z,38.34
2022-08-12T09:51:04.533Z,39.20
2022-08-12T09:53:38.634Z,39.17
2022-08-12T09:56:59.208Z,39.06
2022-08-12T09:59:00.968Z,38.72
2022-08-12T10:01:35.093Z,38.66
2022-08-12T10:04:19.956Z,38.06
2022-08-12T10:06:54.058Z,37.93
2022-08-12T10:09:23.126Z,37.89
2022-08-12T10:12:11.416Z,38.50
2022-08-12T10:14:38.935Z,38.17
2022-08-12T10:17:08.661Z,38.24
2022-08-12T10:19:36.491Z,37.64
2022-08-12T10:22:03.873Z,37.33
2022-08-12T10:24:30.377Z,37.50
2022-08-12T10:26:56.921Z,37.42
2022-08-12T10:30:38.248Z,37.86
2022-08-12T10:32:21.435Z,38.11
2022-08-12T10:35:04.824Z,38.06
2022-08-12T10:38:36.337Z,37.55
2022-08-12T10:40:21.162Z,37.07
2022-08-12T10:42:48.488Z,36.85
2022-08-12T10:45:18.208Z,36.70
2022-08-12T10:48:19.123Z,36.82
2022-08-12T10:50:51.330Z,36.75
2022-08-12T10:53:19.841Z,36.11
2022-08-12T10:55:49.938Z,35.82
2022-08-12T10:58:30.832Z,35.83
2022-08-12T11:01:49.953Z,36.03
2022-08-12T11:04:27.909Z,36.25
2022-08-12T11:07:05.240Z,36.21
2022-08-12T11:09:41.780Z,36.14
2022-08-12T11:12:56.298Z,36.30
2022-08-12T11:14:54.196Z,36.15
2022-08-12T11:17:43.433Z,36.00
2022-08-12T11:20:08.413Z,35.40
2022-08-12T11:22:41.469Z,35.12
2022-08-12T11:25:10.376Z,35.00
2022-08-12T11:27:37.863Z,34.57
2022-08-12T11:30:07.087Z,34.53
2022-08-12T11:32:51.331Z,34.25
2022-08-12T11:35:17.891Z,34.25
2022-08-12T11:37:58.283Z,33.99
2022-08-12T11:40:26.087Z,34.50
2022-08-12T11:43:03.616Z,34.62
2022-08-12T11:45:46.895Z,33.86
2022-08-12T11:48:15.211Z,34.69
2022-08-12T11:50:45.223Z,33.43
2022-08-12T11:53:58.317Z,33.81
2022-08-12T11:55:58.337Z,33.20
2022-08-12T11:59:16.153Z,33.47
2022-08-12T12:03:58.037Z,32.79
2022-08-12T12:06:25.013Z,32.18
2022-08-12T12:08:54.049Z,31.46
2022-08-12T12:11:22.229Z,31.60
2022-08-12T12:14:07.903Z,31.71
2022-08-12T12:16:39.608Z,31.10
2022-08-12T12:19:07.384Z,30.68
2022-08-12T12:21:48.323Z,30.58
2022-08-12T12:24:21.572Z,30.49
2022-08-12T12:26:59.556Z,30.07
2022-08-12T12:30:17.509Z,30.04
2022-08-12T12:32:19.003Z,29.97
2022-08-12T12:35:13.082Z,29.48
2022-08-12T12:38:03.425Z,29.41
2022-08-12T12:40:19.570Z,28.91
2022-08-12T12:42:57.743Z,28.96
2022-08-12T12:45:32.455Z,29.23
2022-08-12T12:48:07.951Z,29.88
2022-08-12T12:50:51.362Z,29.42
2022-08-12T12:54:05.098Z,29.05
2022-08-12T12:56:07.303Z,29.23
2022-08-12T12:58:33.817Z,28.46
2022-08-12T13:01:04.810Z,28.34
2022-08-12T13:03:49.091Z,27.54
2022-08-12T13:06:16.273Z,26.87
2022-08-12T13:08:46.847Z,27.08
2022-08-12T13:11:14.730Z,26.74
2022-08-12T13:14:08.731Z,25.88
2022-08-12T13:16:27.955Z,25.16
2022-08-12T13:18:54.801Z,24.81
2022-08-12T13:21:32.882Z,23.25
2022-08-12T13:24:03.060Z,23.70
2022-08-12T13:26:36.727Z,23.44
2022-08-12T13:29:04.055Z,22.73
2022-08-12T13:31:30.582Z,21.14
2022-08-12T13:34:32.871Z,21.25
2022-08-12T13:36:48.817Z,20.46
2022-08-12T13:39:16.261Z,20.09
2022-08-12T13:41:43.158Z,19.56
2022-08-12T13:44:10.579Z,19.64
2022-08-12T13:46:37.608Z,18.46
2022-08-12T13:49:04.832Z,18.03
2022-08-12T13:51:40.735Z,18.46
2022-08-12T13:54:11.687Z,18.05
2022-08-12T13:56:40.848Z,17.28
2022-08-12T13:59:08.548Z,17.44
2022-08-12T14:01:40.688Z,16.78
2022-08-12T14:04:11.754Z,17.41
2022-08-12T14:06:41.854Z,17.55
2022-08-12T14:09:17.631Z,16.63
2022-08-12T14:11:51.187Z,16.70
2022-08-12T14:14:26.697Z,16.05
2022-08-12T14:16:55.782Z,16.18
2022-08-12T14:19:25.172Z,16.12
2022-08-12T14:22:01.487Z,16.44
2022-08-12T14:24:32.921Z,16.42
2022-08-12T14:27:01.949Z,15.99
2022-08-12T14:29:56.526Z,16.17
2022-08-12T14:32:16.388Z,15.86
2022-08-12T14:34:44.082Z,15.78
2022-08-12T14:37:13.004Z,15.80
2022-08-12T14:39:57.294Z,15.60
2022-08-12T14:42:26.252Z,15.86
2022-08-12T14:44:59.458Z,15.70
2022-08-12T14:47:26.682Z,15.65
2022-08-12T14:50:58.629Z,15.62
2022-08-12T14:55:24.814Z,15.33
2022-08-12T14:58:21.301Z,15.60
2022-08-12T15:00:50.860Z,15.38
2022-08-12T15:03:20.049Z,15.46
2022-08-12T15:06:05.058Z,14.97
2022-08-12T15:08:43.138Z,14.76
2022-08-12T15:11:11.857Z,15.25
2022-08-12T15:13:39.805Z,15.34
2022-08-12T15:16:08.480Z,14.79
2022-08-12T15:18:36.444Z,15.09
2022-08-12T15:21:11.123Z,14.51
2022-08-12T15:23:54.785Z,14.40
2022-08-12T15:26:28.359Z,13.86
2022-08-12T15:28:56.436Z,14.16
2022-08-12T15:31:27.738Z,13.55
2022-08-12T15:33:55.025Z,13.65
2022-08-12T15:36:54.060Z,13.85
2022-08-12T15:39:16.563Z,13.77
2022-08-12T15:41:49.843Z,13.52
2022-08-12T15:44:38.272Z,11.96
2022-08-12T15:47:04.157Z,11.92
2022-08-12T15:49:54.306Z,11.91
2022-08-12T15:52:27.820Z,10.96
2022-08-12T15:54:58.625Z,11.04
2022-08-12T15:57:28.388Z,10.82
2022-08-12T16:00:06.672Z,10.79
2022-08-12T16:02:47.286Z,11.41
2022-08-12T16:06:19.136Z,10.37
2022-08-12T16:08:15.275Z,10.19
2022-08-12T16:10:45.341Z,10.58
2022-08-12T16:13:14.739Z,10.27
2022-08-12T16:16:01.487Z,10.41
2022-08-12T16:18:30.102Z,10.89
2022-08-12T16:20:57.171Z,10.73
2022-08-12T16:23:35.961Z,10.60
2022-08-12T16:26:15.054Z,10.31
2022-08-12T16:28:47.507Z,9.54
2022-08-12T16:31:19.224Z,9.96
2022-08-12T16:33:58.678Z,9.47
2022-08-12T16:36:30.168Z,9.37
2022-08-12T16:38:57.097Z,9.35
2022-08-12T16:41:23.811Z,9.30
2022-08-12T16:43:50.387Z,10.05
2022-08-12T16:46:31.787Z,9.64
2022-08-12T16:49:04.141Z,9.08
2022-08-12T16:51:37.506Z,8.85
2022-08-12T16:54:10.748Z,9.29
2022-08-12T16:56:51.163Z,8.93
2022-08-12T16:59:24.981Z,9.43
2022-08-12T17:01:52.682Z,9.42
2022-08-12T17:04:21.048Z,9.71
2022-08-12T17:06:51.106Z,9.82
2022-08-12T17:09:18.418Z,9.91
2022-08-12T17:11:49.828Z,9.89
2022-08-12T17:14:20.530Z,10.50
2022-08-12T17:16:52.848Z,9.94
2022-08-12T17:20:16.919Z,10.58
2022-08-12T17:22:10.536Z,10.37
2022-08-12T17:24:43.988Z,10.56
2022-08-12T17:27:19.346Z,11.05
2022-08-12T17:30:02.145Z,11.87
2022-08-12T17:32:31.472Z,11.02
2022-08-12T17:35:00.724Z,11.21
2022-08-12T17:37:27.805Z,10.84
2022-08-12T17:40:13.800Z,11.26
2022-08-12T17:42:40.930Z,11.70
2022-08-12T17:45:18.229Z,12.42
2022-08-12T17:48:04.490Z,10.90
2022-08-12T17:50:41.075Z,11.12
2022-08-12T17:53:10.781Z,11.86
2022-08-12T17:55:43.501Z,11.84
2022-08-12T17:58:22.261Z,12.47
2022-08-12T18:01:03.702Z,11.96
2022-08-12T18:04:04.363Z,12.51
2022-08-12T18:06:18.094Z,13.00
2022-08-12T18:08:55.035Z,13.56
2022-08-12T18:12:04.341Z,13.85
2022-08-12T18:14:12.671Z,14.54
2022-08-12T18:16:49.848Z,15.04
2022-08-12T18:19:23.512Z,15.22
2022-08-12T18:22:02.738Z,15.63
2022-08-12T18:24:30.433Z,15.48
2022-08-12T18:26:57.242Z,15.71
2022-08-12T18:29:36.654Z,15.80
2022-08-12T18:32:53.706Z,17.11
2022-08-12T18:34:57.852Z,16.92
2022-08-12T18:37:41.714Z,17.22
2022-08-12T18:40:09.955Z,17.71
2022-08-12T18:42:36.478Z,17.64
2022-08-12T18:45:04.038Z,17.37
2022-08-12T18:47:50.134Z,17.52
2022-08-12T18:50:18.454Z,17.36
2022-08-12T18:52:48.352Z,17.59
2022-08-12T18:55:16.033Z,18.26
2022-08-12T18:58:06.701Z,18.35
2022-08-12T19:00:33.944Z,18.21
2022-08-12T19:03:00.680Z,17.68
2022-08-12T19:05:53.240Z,18.19
2022-08-12T19:08:15.027Z,18.30
2022-08-12T19:10:43.042Z,18.37
2022-08-12T19:13:20.974Z,18.17
2022-08-12T19:15:57.557Z,18.78
2022-08-12T19:18:26.036Z,19.07
2022-08-12T19:20:58.407Z,18.97
2022-08-12T19:23:35.389Z,19.26
2022-08-12T19:26:03.696Z,19.93
2022-08-12T19:28:35.596Z,19.84
2022-08-12T19:31:20.772Z,19.70
2022-08-12T19:34:06.314Z,19.97
2022-08-12T19:36:35.485Z,20.25
2022-08-12T19:39:02.368Z,20.66
2022-08-12T19:42:00.549Z,20.67
2022-08-12T19:44:29.373Z,20.90
2022-08-12T19:46:57.170Z,20.80
2022-08-12T19:49:23.742Z,20.80
2022-08-12T19:51:50.288Z,20.86
2022-08-12T19:54:19.197Z,21.13
2022-08-12T19:56:46.625Z,21.21
2022-08-12T19:59:18.721Z,21.59
2022-08-12T20:02:02.474Z,21.91
2022-08-12T20:04:35.127Z,21.52
2022-08-12T20:07:01.643Z,21.54
2022-08-12T20:09:38.855Z,21.85
2022-08-12T20:12:10.276Z,21.88
2022-08-12T20:14:43.685Z,21.87
2022-08-12T20:17:11.181Z,22.01
2022-08-12T20:20:16.627Z,22.14
2022-08-12T20:22:31.584Z,22.56
2022-08-12T20:25:04.531Z,22.18
2022-08-12T20:28:04.396Z,22.09
2022-08-12T20:30:52.367Z,22.62
2022-08-12T20:33:18.904Z,22.43
2022-08-12T20:36:06.275Z,22.69
2022-08-12T20:38:36.132Z,22.63
2022-08-12T20:41:02.691Z,22.53
2022-08-12T20:43:43.370Z,22.65
2022-08-12T20:46:10.804Z,22.79
2022-08-12T20:48:37.331Z,22.89
2022-08-12T20:51:04.568Z,23.15
2022-08-12T20:53:33.156Z,22.82
2022-08-12T20:56:31.220Z,23.20
2022-08-12T20:58:59.770Z,23.03
2022-08-12T21:01:36.484Z,23.61
2022-08-12T21:04:13.320Z,23.50
2022-08-12T21:06:39.836Z,23.64
2022-08-12T21:09:06.365Z,23.55
2022-08-12T21:11:34.155Z,23.95
2022-08-12T21:14:00.921Z,24.33
2022-08-12T21:16:31.466Z,24.92
2022-08-12T21:19:07.953Z,24.52
2022-08-12T21:21:50.188Z,24.93
2022-08-12T21:24:17.150Z,25.47
2022-08-12T21:26:53.455Z,25.42
2022-08-12T21:29:21.026Z,25.82
2022-08-12T21:32:36.049Z,25.97
2022-08-12T21:34:35.875Z,26.04
2022-08-12T21:37:26.445Z,26.18
2022-08-12T21:39:52.161Z,26.47
2022-08-12T21:42:18.986Z,26.32
2022-08-12T21:45:47.216Z,26.65
2022-08-12T21:47:32.022Z,26.76
2022-08-12T21:50:03.555Z,26.81
2022-08-12T21:52:40.843Z,26.57
2022-08-12T21:55:17.935Z,26.41
2022-08-12T21:57:53.677Z,26.66
2022-08-12T22:00:24.074Z,27.03
2022-08-12T22:03:05.487Z,26.73
2022-08-12T22:05:34.448Z,26.77
2022-08-12T22:08:00.949Z,26.25
2022-08-12T22:10:28.451Z,26.23
2022-08-12T22:12:55.932Z,26.36
2022-08-12T22:15:23.233Z,26.64
2022-08-12T22:17:55.322Z,26.41
2022-08-12T22:20:22.337Z,26.21
2022-08-12T22:22:57.223Z,26.35
2022-08-12T22:25:24.237Z,25.99
2022-08-12T22:27:53.422Z,25.93
2022-08-12T22:30:21.305Z,25.96
2022-08-12T22:32:50.512Z,25.42
2022-08-12T22:35:22.222Z,25.74
2022-08-12T22:37:56.067Z,25.91
2022-08-12T22:40:22.782Z,25.87
2022-08-12T22:42:51.476Z,25.78
2022-08-12T22:45:18.336Z,25.37
2022-08-12T22:47:54.956Z,25.47
2022-08-12T22:50:28.255Z,24.94
2022-08-12T22:52:56.609Z,25.66
2022-08-12T22:56:00.591Z,26.02
2022-08-12T22:58:09.861Z,25.64
2022-08-12T23:00:39.245Z,25.60
2022-08-12T23:03:05.790Z,25.37
2022-08-12T23:05:57.611Z,25.44
2022-08-12T23:08:23.642Z,25.45
2022-08-12T23:10:57.228Z,25.39
2022-08-12T23:13:25.784Z,25.03
2022-08-12T23:15:54.544Z,25.03
2022-08-12T23:18:21.556Z,25.19
2022-08-12T23:20:50.142Z,25.71
2022-08-12T23:23:16.824Z,25.52
2022-08-12T23:25:55.621Z,25.38
2022-08-12T23:28:29.805Z,25.62
2022-08-12T23:30:57.711Z,25.41
2022-08-12T23:33:59.821Z,25.49
2022-08-12T23:36:12.688Z,25.46
2022-08-12T23:38:44.121Z,25.53
2022-08-12T23:41:13.059Z,25.74
2022-08-12T23:43:48.672Z,25.99
2022-08-12T23:46:18.638Z,25.77
2022-08-12T23:48:47.896Z,26.14
2022-08-12T23:51:24.293Z,26.30
2022-08-12T23:53:59.903Z,26.28
2022-08-12T23:56:28.582Z,26.40
2022-08-12T23:58:58.508Z,26.92
